sensor_id;sensor_type;location;lat;lon;timestamp;temperature;humidity
10905;DHT22;5505;51.450;9.254;2022-12-29T00:01:18;8.30;99.90
10905;DHT22;5505;51.450;9.254;2022-12-29T00:04:05;8.30;99.90
10905;DHT22;5505;51.450;9.254;2022-12-29T00:06:52;8.30;99.90
10905;DHT22;5505;51.450;9.254;2022-12-29T00:09:39;8.30;99.90
10905;DHT22;5505;51.450;9.254;2022-12-29T00:12:27;8.40;99.90
10905;DHT22;5505;51.450;9.254;2022-12-29T00:15:36;8.40;99.90
10905;DHT22;5505;51.450;9.254;2022-12-29T00:18:27;8.50;99.90
10905;DHT22;5505;51.450;9.254;2022-12-29T00:21:14;8.50;99.90
10905;DHT22;5505;51.450;9.254;2022-12-29T00:24:20;8.60;99.90
10905;DHT22;5505;51.450;9.254;2022-12-29T00:27:26;8.60;99.90
10905;DHT22;5505;51.450;9.254;2022-12-29T00:30:32;8.70;99.90
10905;DHT22;5505;51.450;9.254;2022-12-29T00:33:36;8.60;99.90
10905;DHT22;5505;51.450;9.254;2022-12-29T00:36:42;8.70;99.90
10905;DHT22;5505;51.450;9.254;2022-12-29T00:39:29;9.60;99.90
10905;DHT22;5505;51.450;9.254;2022-12-29T00:42:33;8.60;99.90
10905;DHT22;5505;51.450;9.254;2022-12-29T00:45:41;8.70;99.90
10905;DHT22;5505;51.450;9.254;2022-12-29T00:48:28;8.70;99.90
10905;DHT22;5505;51.450;9.254;2022-12-29T00:51:32;8.70;99.90
10905;DHT22;5505;51.450;9.254;2022-12-29T00:54:19;8.70;99.90
10905;DHT22;5505;51.450;9.254;2022-12-29T00:57:08;8.70;99.90
10905;DHT22;5505;51.450;9.254;2022-12-29T00:59:55;8.70;99.90
10905;DHT22;5505;51.450;9.254;2022-12-29T01:02:44;8.70;99.90
10905;DHT22;5505;51.450;9.254;2022-12-29T01:05:31;10.00;99.90
10905;DHT22;5505;51.450;9.254;2022-12-29T01:08:17;8.70;99.90
10905;DHT22;5505;51.450;9.254;2022-12-29T01:11:06;8.70;99.90
10905;DHT22;5505;51.450;9.254;2022-12-29T01:13:52;9.10;99.90
10905;DHT22;5505;51.450;9.254;2022-12-29T01:16:39;8.70;99.90
10905;DHT22;5505;51.450;9.254;2022-12-29T01:19:27;8.70;99.90
10905;DHT22;5505;51.450;9.254;2022-12-29T01:22:14;8.80;99.90
10905;DHT22;5505;51.450;9.254;2022-12-29T01:25:01;8.70;99.90
10905;DHT22;5505;51.450;9.254;2022-12-29T01:27:48;8.80;99.90
10905;DHT22;5505;51.450;9.254;2022-12-29T01:30:35;8.90;99.90
10905;DHT22;5505;51.450;9.254;2022-12-29T01:33:22;8.90;99.90
10905;DHT22;5505;51.450;9.254;2022-12-29T01:36:12;8.90;99.90
10905;DHT22;5505;51.450;9.254;2022-12-29T01:38:59;9.00;99.90
10905;DHT22;5505;51.450;9.254;2022-12-29T01:41:46;9.00;99.90
10905;DHT22;5505;51.450;9.254;2022-12-29T01:44:51;9.10;99.90
10905;DHT22;5505;51.450;9.254;2022-12-29T01:47:41;10.00;99.90
10905;DHT22;5505;51.450;9.254;2022-12-29T01:50:30;9.10;99.90
10905;DHT22;5505;51.450;9.254;2022-12-29T01:53:22;9.10;99.90
10905;DHT22;5505;51.450;9.254;2022-12-29T01:56:15;9.10;99.90
10905;DHT22;5505;51.450;9.254;2022-12-29T01:59:08;9.10;99.90
10905;DHT22;5505;51.450;9.254;2022-12-29T02:01:57;9.10;99.90
10905;DHT22;5505;51.450;9.254;2022-12-29T02:04:44;9.20;99.90
10905;DHT22;5505;51.450;9.254;2022-12-29T02:07:31;9.20;99.90
10905;DHT22;5505;51.450;9.254;2022-12-29T02:10:21;9.20;99.90
10905;DHT22;5505;51.450;9.254;2022-12-29T02:13:08;10.30;99.90
10905;DHT22;5505;51.450;9.254;2022-12-29T02:16:02;9.20;99.90
10905;DHT22;5505;51.450;9.254;2022-12-29T02:19:03;9.20;99.90
10905;DHT22;5505;51.450;9.254;2022-12-29T02:22:05;9.20;99.90
10905;DHT22;5505;51.450;9.254;2022-12-29T02:25:25;9.20;99.90
10905;DHT22;5505;51.450;9.254;2022-12-29T02:28:43;9.70;99.90
10905;DHT22;5505;51.450;9.254;2022-12-29T02:31:40;9.00;99.90
10905;DHT22;5505;51.450;9.254;2022-12-29T02:34:40;9.20;99.90
10905;DHT22;5505;51.450;9.254;2022-12-29T02:37:34;9.20;99.90
10905;DHT22;5505;51.450;9.254;2022-12-29T02:40:39;9.20;99.90
10905;DHT22;5505;51.450;9.254;2022-12-29T02:43:37;9.20;99.90
10905;DHT22;5505;51.450;9.254;2022-12-29T02:46:31;9.30;99.90
10905;DHT22;5505;51.450;9.254;2022-12-29T02:49:26;9.20;99.90
10905;DHT22;5505;51.450;9.254;2022-12-29T02:52:22;9.20;99.90
10905;DHT22;5505;51.450;9.254;2022-12-29T02:55:10;9.20;99.90
10905;DHT22;5505;51.450;9.254;2022-12-29T02:58:16;9.90;99.90
10905;DHT22;5505;51.450;9.254;2022-12-29T03:01:22;9.20;99.90
10905;DHT22;5505;51.450;9.254;2022-12-29T03:04:20;9.20;99.90
10905;DHT22;5505;51.450;9.254;2022-12-29T03:07:21;9.20;99.90
10905;DHT22;5505;51.450;9.254;2022-12-29T03:10:25;9.10;99.90
10905;DHT22;5505;51.450;9.254;2022-12-29T03:13:23;9.20;99.90
10905;DHT22;5505;51.450;9.254;2022-12-29T03:16:31;9.20;99.90
10905;DHT22;5505;51.450;9.254;2022-12-29T03:19:22;9.20;99.90
10905;DHT22;5505;51.450;9.254;2022-12-29T03:22:15;9.20;99.90
10905;DHT22;5505;51.450;9.254;2022-12-29T03:25:22;9.30;99.90
10905;DHT22;5505;51.450;9.254;2022-12-29T03:28:12;9.30;99.90
10905;DHT22;5505;51.450;9.254;2022-12-29T03:31:00;9.30;99.90
10905;DHT22;5505;51.450;9.254;2022-12-29T03:33:50;10.60;99.90
10905;DHT22;5505;51.450;9.254;2022-12-29T03:36:42;9.40;99.90
10905;DHT22;5505;51.450;9.254;2022-12-29T03:39:32;9.50;99.90
10905;DHT22;5505;51.450;9.254;2022-12-29T03:42:20;9.50;99.90
10905;DHT22;5505;51.450;9.254;2022-12-29T03:45:10;9.50;99.90
10905;DHT22;5505;51.450;9.254;2022-12-29T03:47:57;9.60;99.90
10905;DHT22;5505;51.450;9.254;2022-12-29T03:50:44;9.60;99.90
10905;DHT22;5505;51.450;9.254;2022-12-29T03:53:30;9.60;99.90
10905;DHT22;5505;51.450;9.254;2022-12-29T03:56:19;9.60;99.90
10905;DHT22;5505;51.450;9.254;2022-12-29T03:59:05;9.70;99.90
10905;DHT22;5505;51.450;9.254;2022-12-29T04:01:52;9.70;99.90
10905;DHT22;5505;51.450;9.254;2022-12-29T04:04:39;9.70;99.90
10905;DHT22;5505;51.450;9.254;2022-12-29T04:07:26;9.90;99.90
10905;DHT22;5505;51.450;9.254;2022-12-29T04:10:13;9.80;99.90
10905;DHT22;5505;51.450;9.254;2022-12-29T04:13:01;9.80;99.90
10905;DHT22;5505;51.450;9.254;2022-12-29T04:15:47;9.90;99.90
10905;DHT22;5505;51.450;9.254;2022-12-29T04:18:41;9.90;99.90
10905;DHT22;5505;51.450;9.254;2022-12-29T04:21:28;10.00;99.90
10905;DHT22;5505;51.450;9.254;2022-12-29T04:24:15;10.00;99.90
10905;DHT22;5505;51.450;9.254;2022-12-29T04:27:02;11.00;99.90
10905;DHT22;5505;51.450;9.254;2022-12-29T04:29:50;9.90;99.90
10905;DHT22;5505;51.450;9.254;2022-12-29T04:32:37;9.90;99.90
10905;DHT22;5505;51.450;9.254;2022-12-29T04:35:24;9.90;99.90
10905;DHT22;5505;51.450;9.254;2022-12-29T04:38:11;9.80;99.90
10905;DHT22;5505;51.450;9.254;2022-12-29T04:40:59;9.80;99.90
10905;DHT22;5505;51.450;9.254;2022-12-29T04:43:46;9.80;99.90
10905;DHT22;5505;51.450;9.254;2022-12-29T04:46:34;9.80;99.90
10905;DHT22;5505;51.450;9.254;2022-12-29T04:49:21;9.70;99.90
10905;DHT22;5505;51.450;9.254;2022-12-29T04:52:08;10.80;99.90
10905;DHT22;5505;51.450;9.254;2022-12-29T04:54:55;9.70;99.90
10905;DHT22;5505;51.450;9.254;2022-12-29T04:57:42;9.70;99.90
10905;DHT22;5505;51.450;9.254;2022-12-29T05:00:28;9.70;99.90
10905;DHT22;5505;51.450;9.254;2022-12-29T05:03:17;9.60;99.90
10905;DHT22;5505;51.450;9.254;2022-12-29T05:06:03;9.50;99.90
10905;DHT22;5505;51.450;9.254;2022-12-29T05:08:50;9.50;99.90
10905;DHT22;5505;51.450;9.254;2022-12-29T05:11:37;9.50;99.90
10905;DHT22;5505;51.450;9.254;2022-12-29T05:14:24;10.20;99.90
10905;DHT22;5505;51.450;9.254;2022-12-29T05:17:11;9.40;99.90
10905;DHT22;5505;51.450;9.254;2022-12-29T05:19:59;9.90;99.90
10905;DHT22;5505;51.450;9.254;2022-12-29T05:22:46;9.40;99.90
10905;DHT22;5505;51.450;9.254;2022-12-29T05:25:33;9.50;99.90
10905;DHT22;5505;51.450;9.254;2022-12-29T05:28:19;10.30;99.90
10905;DHT22;5505;51.450;9.254;2022-12-29T05:31:06;9.50;99.90
10905;DHT22;5505;51.450;9.254;2022-12-29T05:33:53;9.50;99.90
10905;DHT22;5505;51.450;9.254;2022-12-29T05:36:41;9.40;99.90
10905;DHT22;5505;51.450;9.254;2022-12-29T05:39:28;9.40;99.90
10905;DHT22;5505;51.450;9.254;2022-12-29T05:42:15;9.40;99.90
10905;DHT22;5505;51.450;9.254;2022-12-29T05:45:02;9.40;99.90
10905;DHT22;5505;51.450;9.254;2022-12-29T05:47:52;9.40;99.90
10905;DHT22;5505;51.450;9.254;2022-12-29T05:50:39;9.80;99.90
10905;DHT22;5505;51.450;9.254;2022-12-29T05:53:27;9.40;99.90
10905;DHT22;5505;51.450;9.254;2022-12-29T05:56:14;10.50;99.90
10905;DHT22;5505;51.450;9.254;2022-12-29T05:59:01;9.40;99.90
10905;DHT22;5505;51.450;9.254;2022-12-29T06:01:47;9.40;99.90
10905;DHT22;5505;51.450;9.254;2022-12-29T06:04:34;9.50;99.90
10905;DHT22;5505;51.450;9.254;2022-12-29T06:07:21;9.50;99.90
10905;DHT22;5505;51.450;9.254;2022-12-29T06:10:09;9.50;99.90
10905;DHT22;5505;51.450;9.254;2022-12-29T06:12:56;9.50;99.90
10905;DHT22;5505;51.450;9.254;2022-12-29T06:15:43;8.40;99.90
10905;DHT22;5505;51.450;9.254;2022-12-29T06:18:30;9.50;99.90
10905;DHT22;5505;51.450;9.254;2022-12-29T06:21:17;9.50;99.90
10905;DHT22;5505;51.450;9.254;2022-12-29T06:24:04;9.50;99.90
10905;DHT22;5505;51.450;9.254;2022-12-29T06:26:53;9.60;99.90
10905;DHT22;5505;51.450;9.254;2022-12-29T06:29:40;10.00;99.90
10905;DHT22;5505;51.450;9.254;2022-12-29T06:32:26;9.70;99.90
10905;DHT22;5505;51.450;9.254;2022-12-29T06:35:13;9.70;99.90
10905;DHT22;5505;51.450;9.254;2022-12-29T06:38:00;9.70;99.90
10905;DHT22;5505;51.450;9.254;2022-12-29T06:40:47;9.80;99.90
10905;DHT22;5505;51.450;9.254;2022-12-29T06:43:35;9.70;99.90
10905;DHT22;5505;51.450;9.254;2022-12-29T06:46:23;9.80;99.90
10905;DHT22;5505;51.450;9.254;2022-12-29T06:49:10;9.70;99.90
10905;DHT22;5505;51.450;9.254;2022-12-29T06:51:57;9.80;99.90
10905;DHT22;5505;51.450;9.254;2022-12-29T06:54:46;9.80;99.90
10905;DHT22;5505;51.450;9.254;2022-12-29T06:57:32;9.80;99.90
10905;DHT22;5505;51.450;9.254;2022-12-29T07:00:21;9.80;99.90
10905;DHT22;5505;51.450;9.254;2022-12-29T07:03:08;9.80;99.90
10905;DHT22;5505;51.450;9.254;2022-12-29T07:05:54;9.80;99.90
10905;DHT22;5505;51.450;9.254;2022-12-29T07:08:43;9.90;99.90
10905;DHT22;5505;51.450;9.254;2022-12-29T07:11:30;9.80;99.90
10905;DHT22;5505;51.450;9.254;2022-12-29T07:14:17;9.90;99.90
10905;DHT22;5505;51.450;9.254;2022-12-29T07:17:05;9.90;99.90
10905;DHT22;5505;51.450;9.254;2022-12-29T07:19:52;10.50;99.90
10905;DHT22;5505;51.450;9.254;2022-12-29T07:22:38;9.90;99.90
10905;DHT22;5505;51.450;9.254;2022-12-29T07:25:25;9.80;99.90
10905;DHT22;5505;51.450;9.254;2022-12-29T07:28:13;9.80;99.90
10905;DHT22;5505;51.450;9.254;2022-12-29T07:31:00;9.70;99.90
10905;DHT22;5505;51.450;9.254;2022-12-29T07:33:49;9.80;99.90
10905;DHT22;5505;51.450;9.254;2022-12-29T07:36:35;9.80;99.90
10905;DHT22;5505;51.450;9.254;2022-12-29T07:39:22;9.80;99.90
10905;DHT22;5505;51.450;9.254;2022-12-29T07:42:09;9.70;99.90
10905;DHT22;5505;51.450;9.254;2022-12-29T07:44:56;9.70;99.90
10905;DHT22;5505;51.450;9.254;2022-12-29T07:47:43;9.60;99.90
10905;DHT22;5505;51.450;9.254;2022-12-29T07:50:31;9.60;99.90
10905;DHT22;5505;51.450;9.254;2022-12-29T07:53:18;9.60;99.90
10905;DHT22;5505;51.450;9.254;2022-12-29T07:56:05;9.60;99.90
10905;DHT22;5505;51.450;9.254;2022-12-29T07:58:52;9.50;99.90
10905;DHT22;5505;51.450;9.254;2022-12-29T08:01:39;9.50;99.90
10905;DHT22;5505;51.450;9.254;2022-12-29T08:04:26;9.50;99.90
10905;DHT22;5505;51.450;9.254;2022-12-29T08:07:14;9.50;99.90
10905;DHT22;5505;51.450;9.254;2022-12-29T08:10:01;9.50;99.90
10905;DHT22;5505;51.450;9.254;2022-12-29T08:12:47;9.50;99.90
10905;DHT22;5505;51.450;9.254;2022-12-29T08:15:34;9.50;99.90
10905;DHT22;5505;51.450;9.254;2022-12-29T08:18:21;10.20;99.90
10905;DHT22;5505;51.450;9.254;2022-12-29T08:21:08;9.50;99.90
10905;DHT22;5505;51.450;9.254;2022-12-29T08:23:56;9.40;99.90
10905;DHT22;5505;51.450;9.254;2022-12-29T08:26:44;9.40;99.90
10905;DHT22;5505;51.450;9.254;2022-12-29T08:29:31;9.40;99.90
10905;DHT22;5505;51.450;9.254;2022-12-29T08:32:18;9.40;99.90
10905;DHT22;5505;51.450;9.254;2022-12-29T08:35:05;9.40;99.90
10905;DHT22;5505;51.450;9.254;2022-12-29T08:37:52;9.40;99.90
10905;DHT22;5505;51.450;9.254;2022-12-29T08:40:40;9.40;99.90
10905;DHT22;5505;51.450;9.254;2022-12-29T08:43:28;9.30;99.90
10905;DHT22;5505;51.450;9.254;2022-12-29T08:46:15;9.30;99.90
10905;DHT22;5505;51.450;9.254;2022-12-29T08:49:02;10.00;99.90
10905;DHT22;5505;51.450;9.254;2022-12-29T08:51:50;9.30;99.90
10905;DHT22;5505;51.450;9.254;2022-12-29T08:54:37;10.20;99.90
10905;DHT22;5505;51.450;9.254;2022-12-29T08:57:25;9.20;99.90
10905;DHT22;5505;51.450;9.254;2022-12-29T09:00:12;9.20;99.90
10905;DHT22;5505;51.450;9.254;2022-12-29T09:03:00;9.20;99.90
10905;DHT22;5505;51.450;9.254;2022-12-29T09:05:48;9.10;99.90
10905;DHT22;5505;51.450;9.254;2022-12-29T09:08:35;9.10;99.90
10905;DHT22;5505;51.450;9.254;2022-12-29T09:11:23;9.10;99.90
10905;DHT22;5505;51.450;9.254;2022-12-29T09:14:12;9.10;99.90
10905;DHT22;5505;51.450;9.254;2022-12-29T09:16:59;9.20;99.90
10905;DHT22;5505;51.450;9.254;2022-12-29T09:20:04;9.20;99.90
10905;DHT22;5505;51.450;9.254;2022-12-29T09:22:51;9.20;99.90
10905;DHT22;5505;51.450;9.254;2022-12-29T09:25:38;9.30;99.90
10905;DHT22;5505;51.450;9.254;2022-12-29T09:28:25;9.30;99.90
10905;DHT22;5505;51.450;9.254;2022-12-29T09:31:13;9.40;99.90
10905;DHT22;5505;51.450;9.254;2022-12-29T09:34:00;9.50;99.90
10905;DHT22;5505;51.450;9.254;2022-12-29T09:36:47;9.50;99.90
10905;DHT22;5505;51.450;9.254;2022-12-29T09:39:34;9.50;99.90
10905;DHT22;5505;51.450;9.254;2022-12-29T09:42:25;9.50;99.90
10905;DHT22;5505;51.450;9.254;2022-12-29T09:45:16;9.60;99.90
10905;DHT22;5505;51.450;9.254;2022-12-29T09:48:13;9.60;99.90
10905;DHT22;5505;51.450;9.254;2022-12-29T09:51:03;9.70;99.90
10905;DHT22;5505;51.450;9.254;2022-12-29T09:53:55;9.80;99.90
10905;DHT22;5505;51.450;9.254;2022-12-29T09:56:44;9.80;99.90
10905;DHT22;5505;51.450;9.254;2022-12-29T09:59:39;9.90;99.90
10905;DHT22;5505;51.450;9.254;2022-12-29T10:02:34;11.10;99.90
10905;DHT22;5505;51.450;9.254;2022-12-29T10:05:30;10.00;99.90
10905;DHT22;5505;51.450;9.254;2022-12-29T10:08:29;10.20;99.90
10905;DHT22;5505;51.450;9.254;2022-12-29T10:11:29;10.20;99.90
10905;DHT22;5505;51.450;9.254;2022-12-29T10:14:41;10.10;99.90
10905;DHT22;5505;51.450;9.254;2022-12-29T10:17:39;10.20;99.90
10905;DHT22;5505;51.450;9.254;2022-12-29T10:20:32;10.10;99.90
10905;DHT22;5505;51.450;9.254;2022-12-29T10:23:26;10.20;99.90
10905;DHT22;5505;51.450;9.254;2022-12-29T10:26:16;12.10;99.90
10905;DHT22;5505;51.450;9.254;2022-12-29T10:29:05;10.10;99.90
10905;DHT22;5505;51.450;9.254;2022-12-29T10:31:58;10.20;99.90
10905;DHT22;5505;51.450;9.254;2022-12-29T10:34:49;10.10;99.90
10905;DHT22;5505;51.450;9.254;2022-12-29T10:37:45;10.10;99.90
10905;DHT22;5505;51.450;9.254;2022-12-29T10:40:39;10.00;99.90
10905;DHT22;5505;51.450;9.254;2022-12-29T10:43:28;10.10;99.90
10905;DHT22;5505;51.450;9.254;2022-12-29T10:46:18;10.10;99.90
10905;DHT22;5505;51.450;9.254;2022-12-29T10:49:13;10.20;99.90
10905;DHT22;5505;51.450;9.254;2022-12-29T10:52:03;10.50;99.90
10905;DHT22;5505;51.450;9.254;2022-12-29T10:54:55;10.40;99.90
10905;DHT22;5505;51.450;9.254;2022-12-29T10:57:45;11.50;99.90
10905;DHT22;5505;51.450;9.254;2022-12-29T11:00:33;10.50;99.90
10905;DHT22;5505;51.450;9.254;2022-12-29T11:03:41;10.60;99.90
10905;DHT22;5505;51.450;9.254;2022-12-29T11:06:29;10.60;99.90
10905;DHT22;5505;51.450;9.254;2022-12-29T11:09:23;11.20;99.90
10905;DHT22;5505;51.450;9.254;2022-12-29T11:12:24;10.50;99.90
10905;DHT22;5505;51.450;9.254;2022-12-29T11:15:13;10.40;99.90
10905;DHT22;5505;51.450;9.254;2022-12-29T11:18:00;10.40;99.90
10905;DHT22;5505;51.450;9.254;2022-12-29T11:20:49;10.30;99.90
10905;DHT22;5505;51.450;9.254;2022-12-29T11:23:37;10.30;99.90
10905;DHT22;5505;51.450;9.254;2022-12-29T11:26:24;10.30;99.90
10905;DHT22;5505;51.450;9.254;2022-12-29T11:29:21;10.30;99.90
10905;DHT22;5505;51.450;9.254;2022-12-29T11:32:11;10.30;99.90
10905;DHT22;5505;51.450;9.254;2022-12-29T11:34:59;10.30;99.90
10905;DHT22;5505;51.450;9.254;2022-12-29T11:37:56;10.30;99.90
10905;DHT22;5505;51.450;9.254;2022-12-29T11:40:44;10.30;99.90
10905;DHT22;5505;51.450;9.254;2022-12-29T11:43:33;10.30;99.90
10905;DHT22;5505;51.450;9.254;2022-12-29T11:46:25;10.40;99.90
10905;DHT22;5505;51.450;9.254;2022-12-29T11:49:13;10.20;99.90
10905;DHT22;5505;51.450;9.254;2022-12-29T11:52:05;10.20;99.90
10905;DHT22;5505;51.450;9.254;2022-12-29T11:54:54;10.20;99.90
10905;DHT22;5505;51.450;9.254;2022-12-29T11:57:41;10.20;99.90
10905;DHT22;5505;51.450;9.254;2022-12-29T12:00:32;10.10;99.90
10905;DHT22;5505;51.450;9.254;2022-12-29T12:03:24;10.20;99.90
10905;DHT22;5505;51.450;9.254;2022-12-29T12:06:16;11.20;99.90
10905;DHT22;5505;51.450;9.254;2022-12-29T12:09:06;10.80;99.90
10905;DHT22;5505;51.450;9.254;2022-12-29T12:11:54;10.10;99.90
10905;DHT22;5505;51.450;9.254;2022-12-29T12:14:50;11.60;99.90
10905;DHT22;5505;51.450;9.254;2022-12-29T12:17:44;10.10;99.90
10905;DHT22;5505;51.450;9.254;2022-12-29T12:20:41;10.10;99.90
10905;DHT22;5505;51.450;9.254;2022-12-29T12:23:37;10.10;99.90
10905;DHT22;5505;51.450;9.254;2022-12-29T12:26:32;10.10;99.90
10905;DHT22;5505;51.450;9.254;2022-12-29T12:29:22;10.10;99.90
10905;DHT22;5505;51.450;9.254;2022-12-29T12:32:15;10.10;99.90
10905;DHT22;5505;51.450;9.254;2022-12-29T12:35:04;10.10;99.90
10905;DHT22;5505;51.450;9.254;2022-12-29T12:38:11;10.10;99.90
10905;DHT22;5505;51.450;9.254;2022-12-29T12:41:06;10.10;99.90
10905;DHT22;5505;51.450;9.254;2022-12-29T12:44:01;10.10;99.90
10905;DHT22;5505;51.450;9.254;2022-12-29T12:50:36;10.20;99.90
10905;DHT22;5505;51.450;9.254;2022-12-29T12:53:37;10.20;99.90
10905;DHT22;5505;51.450;9.254;2022-12-29T12:56:54;10.20;99.90
10905;DHT22;5505;51.450;9.254;2022-12-29T12:59:51;10.20;99.90
10905;DHT22;5505;51.450;9.254;2022-12-29T13:02:48;10.70;99.90
10905;DHT22;5505;51.450;9.254;2022-12-29T13:05:57;10.20;99.90
10905;DHT22;5505;51.450;9.254;2022-12-29T13:09:12;10.20;99.90
10905;DHT22;5505;51.450;9.254;2022-12-29T13:12:10;10.20;99.90
10905;DHT22;5505;51.450;9.254;2022-12-29T13:15:13;10.10;99.90
10905;DHT22;5505;51.450;9.254;2022-12-29T13:18:15;10.20;99.90
10905;DHT22;5505;51.450;9.254;2022-12-29T13:21:09;10.20;99.90
10905;DHT22;5505;51.450;9.254;2022-12-29T13:24:06;10.40;99.90
10905;DHT22;5505;51.450;9.254;2022-12-29T13:27:01;10.20;99.90
10905;DHT22;5505;51.450;9.254;2022-12-29T13:29:57;10.10;99.90
10905;DHT22;5505;51.450;9.254;2022-12-29T13:32:55;10.10;99.90
10905;DHT22;5505;51.450;9.254;2022-12-29T13:35:54;10.10;99.90
10905;DHT22;5505;51.450;9.254;2022-12-29T13:38:45;10.10;99.90
10905;DHT22;5505;51.450;9.254;2022-12-29T13:41:38;10.20;99.90
10905;DHT22;5505;51.450;9.254;2022-12-29T13:44:30;10.10;99.90
10905;DHT22;5505;51.450;9.254;2022-12-29T13:47:28;10.10;99.90
10905;DHT22;5505;51.450;9.254;2022-12-29T13:50:19;10.10;99.90
10905;DHT22;5505;51.450;9.254;2022-12-29T13:53:14;10.00;99.90
10905;DHT22;5505;51.450;9.254;2022-12-29T13:56:07;10.00;99.90
10905;DHT22;5505;51.450;9.254;2022-12-29T13:59:01;10.00;99.90
10905;DHT22;5505;51.450;9.254;2022-12-29T14:01:56;10.00;99.90
10905;DHT22;5505;51.450;9.254;2022-12-29T14:04:56;10.00;99.90
10905;DHT22;5505;51.450;9.254;2022-12-29T14:07:44;10.00;99.90
10905;DHT22;5505;51.450;9.254;2022-12-29T14:10:33;10.00;99.90
10905;DHT22;5505;51.450;9.254;2022-12-29T14:13:22;9.90;99.90
10905;DHT22;5505;51.450;9.254;2022-12-29T14:16:26;9.80;99.90
10905;DHT22;5505;51.450;9.254;2022-12-29T14:19:16;9.80;99.90
10905;DHT22;5505;51.450;9.254;2022-12-29T14:22:05;9.80;99.90
10905;DHT22;5505;51.450;9.254;2022-12-29T14:24:52;9.90;99.90
10905;DHT22;5505;51.450;9.254;2022-12-29T14:27:53;9.80;99.90
10905;DHT22;5505;51.450;9.254;2022-12-29T14:30:48;9.80;99.90
10905;DHT22;5505;51.450;9.254;2022-12-29T14:33:36;9.70;99.90
10905;DHT22;5505;51.450;9.254;2022-12-29T14:36:26;9.70;99.90
10905;DHT22;5505;51.450;9.254;2022-12-29T14:39:32;9.60;99.90
10905;DHT22;5505;51.450;9.254;2022-12-29T14:42:21;9.60;99.90
10905;DHT22;5505;51.450;9.254;2022-12-29T14:45:27;9.60;99.90
10905;DHT22;5505;51.450;9.254;2022-12-29T14:48:36;10.10;99.90
10905;DHT22;5505;51.450;9.254;2022-12-29T14:51:31;9.60;99.90
10905;DHT22;5505;51.450;9.254;2022-12-29T14:54:43;9.60;99.90
10905;DHT22;5505;51.450;9.254;2022-12-29T14:57:39;9.60;99.90
10905;DHT22;5505;51.450;9.254;2022-12-29T15:00:29;9.60;99.90
10905;DHT22;5505;51.450;9.254;2022-12-29T15:03:19;9.50;99.90
10905;DHT22;5505;51.450;9.254;2022-12-29T15:06:10;10.30;99.90
10905;DHT22;5505;51.450;9.254;2022-12-29T15:09:03;9.40;99.90
10905;DHT22;5505;51.450;9.254;2022-12-29T15:11:54;9.50;99.90
10905;DHT22;5505;51.450;9.254;2022-12-29T15:14:50;9.50;99.90
10905;DHT22;5505;51.450;9.254;2022-12-29T15:17:37;9.50;99.90
10905;DHT22;5505;51.450;9.254;2022-12-29T15:20:26;9.50;99.90
10905;DHT22;5505;51.450;9.254;2022-12-29T15:23:16;9.40;99.90
10905;DHT22;5505;51.450;9.254;2022-12-29T15:26:06;9.40;99.90
10905;DHT22;5505;51.450;9.254;2022-12-29T15:28:53;9.40;99.90
10905;DHT22;5505;51.450;9.254;2022-12-29T15:31:46;9.40;99.90
10905;DHT22;5505;51.450;9.254;2022-12-29T15:34:34;10.30;99.90
10905;DHT22;5505;51.450;9.254;2022-12-29T15:37:23;9.40;99.90
10905;DHT22;5505;51.450;9.254;2022-12-29T15:40:22;9.40;99.90
10905;DHT22;5505;51.450;9.254;2022-12-29T15:43:32;9.30;99.90
10905;DHT22;5505;51.450;9.254;2022-12-29T15:46:23;9.10;99.90
10905;DHT22;5505;51.450;9.254;2022-12-29T15:49:14;9.00;99.90
10905;DHT22;5505;51.450;9.254;2022-12-29T15:52:06;9.00;99.90
10905;DHT22;5505;51.450;9.254;2022-12-29T15:54:53;8.90;99.90
10905;DHT22;5505;51.450;9.254;2022-12-29T15:57:43;9.60;99.90
10905;DHT22;5505;51.450;9.254;2022-12-29T16:00:31;8.70;99.90
10905;DHT22;5505;51.450;9.254;2022-12-29T16:03:19;8.80;99.90
10905;DHT22;5505;51.450;9.254;2022-12-29T16:06:09;8.80;99.90
10905;DHT22;5505;51.450;9.254;2022-12-29T16:08:57;8.80;99.90
10905;DHT22;5505;51.450;9.254;2022-12-29T16:11:47;10.60;99.90
10905;DHT22;5505;51.450;9.254;2022-12-29T16:14:42;8.80;99.90
10905;DHT22;5505;51.450;9.254;2022-12-29T16:17:33;8.90;99.90
10905;DHT22;5505;51.450;9.254;2022-12-29T16:20:22;9.90;99.90
10905;DHT22;5505;51.450;9.254;2022-12-29T16:23:18;8.70;99.90
10905;DHT22;5505;51.450;9.254;2022-12-29T16:26:16;8.60;99.90
10905;DHT22;5505;51.450;9.254;2022-12-29T16:29:05;8.60;99.90
10905;DHT22;5505;51.450;9.254;2022-12-29T16:31:56;8.50;99.90
10905;DHT22;5505;51.450;9.254;2022-12-29T16:34:48;8.50;99.90
10905;DHT22;5505;51.450;9.254;2022-12-29T16:37:35;8.50;99.90
10905;DHT22;5505;51.450;9.254;2022-12-29T16:40:29;8.50;99.90
10905;DHT22;5505;51.450;9.254;2022-12-29T16:43:21;8.50;99.90
10905;DHT22;5505;51.450;9.254;2022-12-29T16:46:25;9.30;99.90
10905;DHT22;5505;51.450;9.254;2022-12-29T16:49:17;8.50;99.90
10905;DHT22;5505;51.450;9.254;2022-12-29T16:52:12;8.50;99.90
10905;DHT22;5505;51.450;9.254;2022-12-29T16:55:00;8.50;99.90
10905;DHT22;5505;51.450;9.254;2022-12-29T16:57:50;8.60;99.90
10905;DHT22;5505;51.450;9.254;2022-12-29T17:00:41;8.60;99.90
10905;DHT22;5505;51.450;9.254;2022-12-29T17:03:33;10.60;99.90
10905;DHT22;5505;51.450;9.254;2022-12-29T17:06:22;8.70;99.90
10905;DHT22;5505;51.450;9.254;2022-12-29T17:09:22;8.60;99.90
10905;DHT22;5505;51.450;9.254;2022-12-29T17:12:12;8.60;99.90
10905;DHT22;5505;51.450;9.254;2022-12-29T17:15:06;8.50;99.90
10905;DHT22;5505;51.450;9.254;2022-12-29T17:17:56;9.30;99.90
10905;DHT22;5505;51.450;9.254;2022-12-29T17:20:42;8.40;99.90
10905;DHT22;5505;51.450;9.254;2022-12-29T17:23:33;8.40;99.90
10905;DHT22;5505;51.450;9.254;2022-12-29T17:26:20;8.40;99.90
10905;DHT22;5505;51.450;9.254;2022-12-29T17:29:11;8.30;99.90
10905;DHT22;5505;51.450;9.254;2022-12-29T17:32:00;8.40;99.90
10905;DHT22;5505;51.450;9.254;2022-12-29T17:34:48;8.30;99.90
10905;DHT22;5505;51.450;9.254;2022-12-29T17:37:36;8.30;99.90
10905;DHT22;5505;51.450;9.254;2022-12-29T17:40:26;8.30;99.90
10905;DHT22;5505;51.450;9.254;2022-12-29T17:43:15;8.20;99.90
10905;DHT22;5505;51.450;9.254;2022-12-29T17:46:05;9.40;99.90
10905;DHT22;5505;51.450;9.254;2022-12-29T17:48:52;8.00;99.90
10905;DHT22;5505;51.450;9.254;2022-12-29T17:51:40;7.90;99.90
10905;DHT22;5505;51.450;9.254;2022-12-29T17:54:27;7.90;99.90
10905;DHT22;5505;51.450;9.254;2022-12-29T17:57:16;7.80;99.90
10905;DHT22;5505;51.450;9.254;2022-12-29T18:00:04;7.80;99.90
10905;DHT22;5505;51.450;9.254;2022-12-29T18:02:51;7.70;99.90
10905;DHT22;5505;51.450;9.254;2022-12-29T18:05:39;7.70;99.90
10905;DHT22;5505;51.450;9.254;2022-12-29T18:08:26;7.60;99.90
10905;DHT22;5505;51.450;9.254;2022-12-29T18:11:20;7.60;99.90
10905;DHT22;5505;51.450;9.254;2022-12-29T18:14:13;8.10;99.90
10905;DHT22;5505;51.450;9.254;2022-12-29T18:17:00;7.70;99.90
10905;DHT22;5505;51.450;9.254;2022-12-29T18:19:47;7.70;99.90
10905;DHT22;5505;51.450;9.254;2022-12-29T18:22:35;7.90;99.90
10905;DHT22;5505;51.450;9.254;2022-12-29T18:25:25;7.60;99.90
10905;DHT22;5505;51.450;9.254;2022-12-29T18:28:14;7.70;99.90
10905;DHT22;5505;51.450;9.254;2022-12-29T18:31:02;9.60;99.90
10905;DHT22;5505;51.450;9.254;2022-12-29T18:33:50;7.70;99.90
10905;DHT22;5505;51.450;9.254;2022-12-29T18:36:38;7.60;99.90